sensor_id;sensor_type;location;lat;lon;timestamp;temperature;humidity
1107;DHT22;540;49.448;8.612;2023-09-30T00:00:15;18.70;99.90
1107;DHT22;540;49.448;8.612;2023-09-30T00:02:43;18.60;99.90
1107;DHT22;540;49.448;8.612;2023-09-30T00:05:11;18.60;99.90
1107;DHT22;540;49.448;8.612;2023-09-30T00:07:41;18.40;99.90
1107;DHT22;540;49.448;8.612;2023-09-30T00:10:09;18.30;99.90
1107;DHT22;540;49.448;8.612;2023-09-30T00:12:38;18.30;99.90
1107;DHT22;540;49.448;8.612;2023-09-30T00:15:07;18.00;99.90
1107;DHT22;540;49.448;8.612;2023-09-30T00:17:35;18.40;99.90
1107;DHT22;540;49.448;8.612;2023-09-30T00:20:03;18.20;99.90
1107;DHT22;540;49.448;8.612;2023-09-30T00:22:32;18.10;99.90
1107;DHT22;540;49.448;8.612;2023-09-30T00:25:00;18.10;99.90
1107;DHT22;540;49.448;8.612;2023-09-30T00:27:27;18.20;99.90
1107;DHT22;540;49.448;8.612;2023-09-30T00:29:57;18.00;99.90
1107;DHT22;540;49.448;8.612;2023-09-30T00:32:24;17.90;99.90
1107;DHT22;540;49.448;8.612;2023-09-30T00:34:52;18.20;99.90
1107;DHT22;540;49.448;8.612;2023-09-30T00:37:21;17.80;99.90
1107;DHT22;540;49.448;8.612;2023-09-30T00:39:49;17.90;99.90
1107;DHT22;540;49.448;8.612;2023-09-30T00:42:17;18.30;99.90
1107;DHT22;540;49.448;8.612;2023-09-30T00:44:45;18.00;99.90
1107;DHT22;540;49.448;8.612;2023-09-30T00:47:14;18.30;99.90
1107;DHT22;540;49.448;8.612;2023-09-30T00:49:42;18.40;99.90
1107;DHT22;540;49.448;8.612;2023-09-30T00:52:10;18.30;99.90
1107;DHT22;540;49.448;8.612;2023-09-30T00:54:39;18.40;99.90
1107;DHT22;540;49.448;8.612;2023-09-30T00:57:07;18.40;99.90
1107;DHT22;540;49.448;8.612;2023-09-30T00:59:35;18.50;99.90
1107;DHT22;540;49.448;8.612;2023-09-30T01:02:03;18.50;99.90
1107;DHT22;540;49.448;8.612;2023-09-30T01:04:34;18.30;99.90
1107;DHT22;540;49.448;8.612;2023-09-30T01:07:03;18.40;99.90
1107;DHT22;540;49.448;8.612;2023-09-30T01:09:31;18.50;99.90
1107;DHT22;540;49.448;8.612;2023-09-30T01:12:00;18.50;99.90
1107;DHT22;540;49.448;8.612;2023-09-30T01:14:30;18.70;99.90
1107;DHT22;540;49.448;8.612;2023-09-30T01:16:58;18.40;99.90
1107;DHT22;540;49.448;8.612;2023-09-30T01:19:26;18.50;99.90
1107;DHT22;540;49.448;8.612;2023-09-30T01:21:55;18.20;99.90
1107;DHT22;540;49.448;8.612;2023-09-30T01:24:25;18.00;99.90
1107;DHT22;540;49.448;8.612;2023-09-30T01:26:54;18.70;99.90
1107;DHT22;540;49.448;8.612;2023-09-30T01:29:21;18.60;99.90
1107;DHT22;540;49.448;8.612;2023-09-30T01:31:51;18.50;99.90
1107;DHT22;540;49.448;8.612;2023-09-30T01:34:20;18.60;99.90
1107;DHT22;540;49.448;8.612;2023-09-30T01:36:48;18.20;99.90
1107;DHT22;540;49.448;8.612;2023-09-30T01:39:17;18.30;99.90
1107;DHT22;540;49.448;8.612;2023-09-30T01:41:45;18.40;99.90
1107;DHT22;540;49.448;8.612;2023-09-30T01:44:13;18.30;99.90
1107;DHT22;540;49.448;8.612;2023-09-30T01:46:41;18.60;99.90
1107;DHT22;540;49.448;8.612;2023-09-30T01:49:09;18.10;99.90
1107;DHT22;540;49.448;8.612;2023-09-30T01:51:37;18.30;99.90
1107;DHT22;540;49.448;8.612;2023-09-30T01:54:05;18.20;99.90
1107;DHT22;540;49.448;8.612;2023-09-30T01:56:35;18.40;99.90
1107;DHT22;540;49.448;8.612;2023-09-30T01:59:03;18.50;99.90
1107;DHT22;540;49.448;8.612;2023-09-30T02:01:30;18.30;99.90
1107;DHT22;540;49.448;8.612;2023-09-30T02:03:58;18.30;99.90
1107;DHT22;540;49.448;8.612;2023-09-30T02:06:27;18.20;99.90
1107;DHT22;540;49.448;8.612;2023-09-30T02:08:55;18.40;99.90
1107;DHT22;540;49.448;8.612;2023-09-30T02:11:22;18.20;99.90
1107;DHT22;540;49.448;8.612;2023-09-30T02:13:52;17.90;99.90
1107;DHT22;540;49.448;8.612;2023-09-30T02:16:19;18.10;99.90
1107;DHT22;540;49.448;8.612;2023-09-30T02:18:47;18.20;99.90
1107;DHT22;540;49.448;8.612;2023-09-30T02:21:18;18.20;99.90
1107;DHT22;540;49.448;8.612;2023-09-30T02:23:48;18.60;99.90
1107;DHT22;540;49.448;8.612;2023-09-30T02:26:16;18.10;99.90
1107;DHT22;540;49.448;8.612;2023-09-30T02:28:44;18.30;99.90
1107;DHT22;540;49.448;8.612;2023-09-30T02:31:13;18.20;99.90
1107;DHT22;540;49.448;8.612;2023-09-30T02:33:41;17.80;99.90
1107;DHT22;540;49.448;8.612;2023-09-30T02:36:10;18.10;99.90
1107;DHT22;540;49.448;8.612;2023-09-30T02:38:39;18.10;99.90
1107;DHT22;540;49.448;8.612;2023-09-30T02:41:07;17.50;99.90
1107;DHT22;540;49.448;8.612;2023-09-30T02:43:35;18.00;99.90
1107;DHT22;540;49.448;8.612;2023-09-30T02:46:04;17.30;99.90
1107;DHT22;540;49.448;8.612;2023-09-30T02:48:34;17.90;99.90
1107;DHT22;540;49.448;8.612;2023-09-30T02:51:02;17.70;99.90
1107;DHT22;540;49.448;8.612;2023-09-30T02:53:29;17.80;99.90
1107;DHT22;540;49.448;8.612;2023-09-30T02:55:57;17.70;99.90
1107;DHT22;540;49.448;8.612;2023-09-30T02:58:27;17.40;99.90
1107;DHT22;540;49.448;8.612;2023-09-30T03:00:55;17.40;99.90
1107;DHT22;540;49.448;8.612;2023-09-30T03:03:23;17.30;99.90
1107;DHT22;540;49.448;8.612;2023-09-30T03:05:53;17.40;99.90
1107;DHT22;540;49.448;8.612;2023-09-30T03:08:21;17.70;99.90
1107;DHT22;540;49.448;8.612;2023-09-30T03:10:51;17.50;99.90
1107;DHT22;540;49.448;8.612;2023-09-30T03:13:20;17.40;99.90
1107;DHT22;540;49.448;8.612;2023-09-30T03:15:48;17.30;99.90
1107;DHT22;540;49.448;8.612;2023-09-30T03:18:18;17.50;99.90
1107;DHT22;540;49.448;8.612;2023-09-30T03:20:50;17.40;99.90
1107;DHT22;540;49.448;8.612;2023-09-30T03:23:24;17.10;99.90
1107;DHT22;540;49.448;8.612;2023-09-30T03:25:56;17.60;99.90
1107;DHT22;540;49.448;8.612;2023-09-30T03:28:24;17.50;99.90
1107;DHT22;540;49.448;8.612;2023-09-30T03:30:52;17.40;99.90
1107;DHT22;540;49.448;8.612;2023-09-30T03:33:20;17.20;99.90
1107;DHT22;540;49.448;8.612;2023-09-30T03:35:47;17.40;99.90
1107;DHT22;540;49.448;8.612;2023-09-30T03:38:15;17.20;99.90
1107;DHT22;540;49.448;8.612;2023-09-30T03:40:46;17.40;99.90
1107;DHT22;540;49.448;8.612;2023-09-30T03:43:16;17.20;99.90
1107;DHT22;540;49.448;8.612;2023-09-30T03:45:43;17.40;99.90
1107;DHT22;540;49.448;8.612;2023-09-30T03:48:11;17.20;99.90
1107;DHT22;540;49.448;8.612;2023-09-30T03:50:39;17.20;99.90
1107;DHT22;540;49.448;8.612;2023-09-30T03:53:07;17.30;99.90
1107;DHT22;540;49.448;8.612;2023-09-30T03:55:36;17.40;99.90
1107;DHT22;540;49.448;8.612;2023-09-30T03:58:05;17.30;99.90
1107;DHT22;540;49.448;8.612;2023-09-30T04:00:33;17.00;99.90
1107;DHT22;540;49.448;8.612;2023-09-30T04:03:03;17.40;99.90
1107;DHT22;540;49.448;8.612;2023-09-30T04:05:31;17.30;99.90
1107;DHT22;540;49.448;8.612;2023-09-30T04:08:03;17.50;99.90
1107;DHT22;540;49.448;8.612;2023-09-30T04:10:32;17.50;99.90
1107;DHT22;540;49.448;8.612;2023-09-30T04:13:00;17.50;99.90
1107;DHT22;540;49.448;8.612;2023-09-30T04:15:29;17.50;99.90
1107;DHT22;540;49.448;8.612;2023-09-30T04:17:57;17.60;99.90
1107;DHT22;540;49.448;8.612;2023-09-30T04:20:25;17.60;99.90
1107;DHT22;540;49.448;8.612;2023-09-30T04:22:53;17.40;99.90
1107;DHT22;540;49.448;8.612;2023-09-30T04:25:24;17.40;99.90
1107;DHT22;540;49.448;8.612;2023-09-30T04:27:52;17.40;99.90
1107;DHT22;540;49.448;8.612;2023-09-30T04:30:20;17.40;99.90
1107;DHT22;540;49.448;8.612;2023-09-30T04:32:51;17.40;99.90
1107;DHT22;540;49.448;8.612;2023-09-30T04:35:19;17.50;99.90
1107;DHT22;540;49.448;8.612;2023-09-30T04:37:48;17.30;99.90
1107;DHT22;540;49.448;8.612;2023-09-30T04:40:18;17.50;99.90
1107;DHT22;540;49.448;8.612;2023-09-30T04:42:47;17.50;99.90
1107;DHT22;540;49.448;8.612;2023-09-30T04:45:16;17.20;99.90
1107;DHT22;540;49.448;8.612;2023-09-30T04:47:47;17.10;99.90
1107;DHT22;540;49.448;8.612;2023-09-30T04:50:18;17.20;99.90
1107;DHT22;540;49.448;8.612;2023-09-30T04:52:48;17.10;99.90
1107;DHT22;540;49.448;8.612;2023-09-30T04:55:16;17.00;99.90
1107;DHT22;540;49.448;8.612;2023-09-30T04:57:46;17.30;99.90
1107;DHT22;540;49.448;8.612;2023-09-30T05:00:15;17.00;99.90
1107;DHT22;540;49.448;8.612;2023-09-30T05:02:44;17.00;99.90
1107;DHT22;540;49.448;8.612;2023-09-30T05:05:13;16.90;99.90
1107;DHT22;540;49.448;8.612;2023-09-30T05:07:43;17.20;99.90
1107;DHT22;540;49.448;8.612;2023-09-30T05:10:13;17.00;99.90
1107;DHT22;540;49.448;8.612;2023-09-30T05:12:43;16.90;99.90
1107;DHT22;540;49.448;8.612;2023-09-30T05:15:15;17.00;99.90
1107;DHT22;540;49.448;8.612;2023-09-30T05:17:44;16.70;99.90
1107;DHT22;540;49.448;8.612;2023-09-30T05:20:12;17.10;99.90
1107;DHT22;540;49.448;8.612;2023-09-30T05:22:44;16.70;99.90
1107;DHT22;540;49.448;8.612;2023-09-30T05:25:13;17.00;99.90
1107;DHT22;540;49.448;8.612;2023-09-30T05:27:43;17.00;99.90
1107;DHT22;540;49.448;8.612;2023-09-30T05:30:11;17.00;99.90
1107;DHT22;540;49.448;8.612;2023-09-30T05:32:42;17.00;99.90
1107;DHT22;540;49.448;8.612;2023-09-30T05:35:10;17.10;99.90
1107;DHT22;540;49.448;8.612;2023-09-30T05:37:40;17.00;99.90
1107;DHT22;540;49.448;8.612;2023-09-30T05:40:10;16.90;99.90
1107;DHT22;540;49.448;8.612;2023-09-30T05:42:46;16.80;99.90
1107;DHT22;540;49.448;8.612;2023-09-30T05:45:15;16.70;99.90
1107;DHT22;540;49.448;8.612;2023-09-30T05:47:43;16.90;99.90
1107;DHT22;540;49.448;8.612;2023-09-30T05:50:15;16.80;99.90
1107;DHT22;540;49.448;8.612;2023-09-30T05:52:43;16.80;99.90
1107;DHT22;540;49.448;8.612;2023-09-30T05:55:12;16.80;99.90
1107;DHT22;540;49.448;8.612;2023-09-30T05:57:41;16.90;99.90
1107;DHT22;540;49.448;8.612;2023-09-30T06:00:12;17.00;99.90
1107;DHT22;540;49.448;8.612;2023-09-30T06:02:47;17.10;99.90
1107;DHT22;540;49.448;8.612;2023-09-30T06:05:15;16.70;99.90
1107;DHT22;540;49.448;8.612;2023-09-30T06:07:45;17.20;99.90
1107;DHT22;540;49.448;8.612;2023-09-30T06:10:14;16.90;99.90
1107;DHT22;540;49.448;8.612;2023-09-30T06:12:46;17.00;99.90
1107;DHT22;540;49.448;8.612;2023-09-30T06:15:14;16.70;99.90
1107;DHT22;540;49.448;8.612;2023-09-30T06:17:49;17.20;99.90
1107;DHT22;540;49.448;8.612;2023-09-30T06:20:18;16.80;99.90
1107;DHT22;540;49.448;8.612;2023-09-30T06:22:49;17.20;99.90
1107;DHT22;540;49.448;8.612;2023-09-30T06:25:18;17.30;99.90
1107;DHT22;540;49.448;8.612;2023-09-30T06:27:47;17.60;99.90
1107;DHT22;540;49.448;8.612;2023-09-30T06:30:15;17.70;99.90
1107;DHT22;540;49.448;8.612;2023-09-30T06:32:44;17.50;99.90
1107;DHT22;540;49.448;8.612;2023-09-30T06:35:13;17.70;99.90
1107;DHT22;540;49.448;8.612;2023-09-30T06:37:41;17.70;99.90
1107;DHT22;540;49.448;8.612;2023-09-30T06:40:10;18.00;99.90
1107;DHT22;540;49.448;8.612;2023-09-30T06:42:41;18.00;99.90
1107;DHT22;540;49.448;8.612;2023-09-30T06:45:09;18.10;99.90
1107;DHT22;540;49.448;8.612;2023-09-30T06:47:40;18.20;99.90
1107;DHT22;540;49.448;8.612;2023-09-30T06:50:10;18.30;99.90
1107;DHT22;540;49.448;8.612;2023-09-30T06:52:40;18.50;99.90
1107;DHT22;540;49.448;8.612;2023-09-30T06:55:09;18.40;99.90
1107;DHT22;540;49.448;8.612;2023-09-30T06:57:41;18.50;99.90
1107;DHT22;540;49.448;8.612;2023-09-30T07:00:11;18.60;99.90
1107;DHT22;540;49.448;8.612;2023-09-30T07:02:41;18.80;99.90
1107;DHT22;540;49.448;8.612;2023-09-30T07:05:10;18.70;99.90
1107;DHT22;540;49.448;8.612;2023-09-30T07:07:39;18.90;99.70
1107;DHT22;540;49.448;8.612;2023-09-30T07:10:08;19.10;99.10
1107;DHT22;540;49.448;8.612;2023-09-30T07:12:36;19.00;98.10
1107;DHT22;540;49.448;8.612;2023-09-30T07:15:06;19.50;97.30
1107;DHT22;540;49.448;8.612;2023-09-30T07:17:35;19.80;96.20
1107;DHT22;540;49.448;8.612;2023-09-30T07:20:04;20.10;94.30
1107;DHT22;540;49.448;8.612;2023-09-30T07:22:33;21.00;91.60
1107;DHT22;540;49.448;8.612;2023-09-30T07:25:21;21.40;88.40
1107;DHT22;540;49.448;8.612;2023-09-30T07:27:49;22.50;82.30
1107;DHT22;540;49.448;8.612;2023-09-30T07:30:18;23.00;79.60
1107;DHT22;540;49.448;8.612;2023-09-30T07:32:46;23.60;75.50
1107;DHT22;540;49.448;8.612;2023-09-30T07:35:14;24.10;71.40
1107;DHT22;540;49.448;8.612;2023-09-30T07:37:42;24.40;69.10
1107;DHT22;540;49.448;8.612;2023-09-30T07:40:12;24.40;67.10
1107;DHT22;540;49.448;8.612;2023-09-30T07:42:40;24.70;66.80
1107;DHT22;540;49.448;8.612;2023-09-30T07:45:09;24.90;65.60
1107;DHT22;540;49.448;8.612;2023-09-30T07:47:39;25.10;64.00
1107;DHT22;540;49.448;8.612;2023-09-30T07:50:08;25.20;63.10
1107;DHT22;540;49.448;8.612;2023-09-30T07:52:37;25.30;61.80
1107;DHT22;540;49.448;8.612;2023-09-30T07:55:06;25.30;61.60
1107;DHT22;540;49.448;8.612;2023-09-30T07:57:35;25.40;60.60
1107;DHT22;540;49.448;8.612;2023-09-30T08:00:04;25.50;59.70
1107;DHT22;540;49.448;8.612;2023-09-30T08:02:36;25.60;58.00
1107;DHT22;540;49.448;8.612;2023-09-30T08:05:08;25.50;57.80
1107;DHT22;540;49.448;8.612;2023-09-30T08:07:38;25.30;57.70
1107;DHT22;540;49.448;8.612;2023-09-30T08:10:07;25.50;57.50
1107;DHT22;540;49.448;8.612;2023-09-30T08:12:41;25.80;56.30
1107;DHT22;540;49.448;8.612;2023-09-30T08:15:12;25.60;56.70
1107;DHT22;540;49.448;8.612;2023-09-30T08:17:41;25.90;55.60
1107;DHT22;540;49.448;8.612;2023-09-30T08:20:12;26.10;54.40
1107;DHT22;540;49.448;8.612;2023-09-30T08:22:41;26.60;53.70
1107;DHT22;540;49.448;8.612;2023-09-30T08:25:10;26.80;52.20
1107;DHT22;540;49.448;8.612;2023-09-30T08:27:39;26.80;52.20
1107;DHT22;540;49.448;8.612;2023-09-30T08:30:09;27.10;51.10
1107;DHT22;540;49.448;8.612;2023-09-30T08:32:39;26.90;51.00
1107;DHT22;540;49.448;8.612;2023-09-30T08:35:09;27.00;49.90
1107;DHT22;540;49.448;8.612;2023-09-30T08:37:39;27.50;49.30
1107;DHT22;540;49.448;8.612;2023-09-30T08:40:08;27.50;48.80
1107;DHT22;540;49.448;8.612;2023-09-30T08:42:38;27.70;47.60
1107;DHT22;540;49.448;8.612;2023-09-30T08:45:10;27.60;47.40
1107;DHT22;540;49.448;8.612;2023-09-30T08:47:41;27.80;47.10
1107;DHT22;540;49.448;8.612;2023-09-30T08:50:09;28.00;45.60
1107;DHT22;540;49.448;8.612;2023-09-30T08:52:41;27.90;46.10
1107;DHT22;540;49.448;8.612;2023-09-30T08:55:11;28.50;45.30
1107;DHT22;540;49.448;8.612;2023-09-30T08:57:40;28.50;44.20
1107;DHT22;540;49.448;8.612;2023-09-30T09:00:10;28.60;44.10
1107;DHT22;540;49.448;8.612;2023-09-30T09:02:40;28.90;43.30
1107;DHT22;540;49.448;8.612;2023-09-30T09:05:08;28.90;42.70
1107;DHT22;540;49.448;8.612;2023-09-30T09:07:39;28.70;42.20
1107;DHT22;540;49.448;8.612;2023-09-30T09:10:10;28.70;41.80
1107;DHT22;540;49.448;8.612;2023-09-30T09:12:40;29.00;42.10
1107;DHT22;540;49.448;8.612;2023-09-30T09:15:22;29.10;42.30
1107;DHT22;540;49.448;8.612;2023-09-30T09:17:51;29.10;41.20
1107;DHT22;540;49.448;8.612;2023-09-30T09:20:20;28.70;42.20
1107;DHT22;540;49.448;8.612;2023-09-30T09:22:52;28.90;41.70
1107;DHT22;540;49.448;8.612;2023-09-30T09:25:21;29.30;40.70
1107;DHT22;540;49.448;8.612;2023-09-30T09:27:50;29.10;40.50
1107;DHT22;540;49.448;8.612;2023-09-30T09:30:22;29.20;41.00
1107;DHT22;540;49.448;8.612;2023-09-30T09:32:54;29.30;40.90
1107;DHT22;540;49.448;8.612;2023-09-30T09:35:22;29.20;40.80
1107;DHT22;540;49.448;8.612;2023-09-30T09:37:58;29.10;41.20
1107;DHT22;540;49.448;8.612;2023-09-30T09:40:28;29.50;40.20
1107;DHT22;540;49.448;8.612;2023-09-30T09:42:56;29.50;40.80
1107;DHT22;540;49.448;8.612;2023-09-30T09:45:26;28.90;41.10
1107;DHT22;540;49.448;8.612;2023-09-30T09:47:55;28.10;42.90
1107;DHT22;540;49.448;8.612;2023-09-30T09:50:23;28.70;42.80
1107;DHT22;540;49.448;8.612;2023-09-30T09:52:52;28.50;42.80
1107;DHT22;540;49.448;8.612;2023-09-30T09:55:23;29.40;41.50
1107;DHT22;540;49.448;8.612;2023-09-30T09:57:51;29.40;41.30
1107;DHT22;540;49.448;8.612;2023-09-30T10:00:21;29.40;41.10
1107;DHT22;540;49.448;8.612;2023-09-30T10:02:50;29.40;41.60
1107;DHT22;540;49.448;8.612;2023-09-30T10:05:20;29.70;41.00
1107;DHT22;540;49.448;8.612;2023-09-30T10:07:52;29.70;41.10
1107;DHT22;540;49.448;8.612;2023-09-30T10:10:23;29.50;41.20
1107;DHT22;540;49.448;8.612;2023-09-30T10:12:51;29.70;41.50
1107;DHT22;540;49.448;8.612;2023-09-30T10:15:37;29.30;41.10
1107;DHT22;540;49.448;8.612;2023-09-30T10:18:08;29.70;40.90
1107;DHT22;540;49.448;8.612;2023-09-30T10:20:41;29.50;41.20
1107;DHT22;540;49.448;8.612;2023-09-30T10:23:18;29.40;41.90
1107;DHT22;540;49.448;8.612;2023-09-30T10:25:49;29.90;40.80
1107;DHT22;540;49.448;8.612;2023-09-30T10:28:36;29.70;40.60
1107;DHT22;540;49.448;8.612;2023-09-30T10:31:12;29.70;41.00
1107;DHT22;540;49.448;8.612;2023-09-30T10:34:17;29.90;40.70
1107;DHT22;540;49.448;8.612;2023-09-30T10:36:46;29.80;40.60
1107;DHT22;540;49.448;8.612;2023-09-30T10:39:14;29.00;41.60
1107;DHT22;540;49.448;8.612;2023-09-30T10:41:52;29.20;42.00
1107;DHT22;540;49.448;8.612;2023-09-30T10:44:35;29.30;41.30
1107;DHT22;540;49.448;8.612;2023-09-30T10:47:34;29.60;40.50
1107;DHT22;540;49.448;8.612;2023-09-30T10:50:03;28.90;41.40
1107;DHT22;540;49.448;8.612;2023-09-30T10:52:32;29.30;41.60
1107;DHT22;540;49.448;8.612;2023-09-30T10:55:03;29.70;40.80
1107;DHT22;540;49.448;8.612;2023-09-30T10:57:34;29.30;41.50
1107;DHT22;540;49.448;8.612;2023-09-30T11:00:08;28.50;42.30
1107;DHT22;540;49.448;8.612;2023-09-30T11:02:48;28.70;42.80
1107;DHT22;540;49.448;8.612;2023-09-30T11:05:18;29.10;41.80
1107;DHT22;540;49.448;8.612;2023-09-30T11:08:02;29.60;41.30
1107;DHT22;540;49.448;8.612;2023-09-30T11:10:30;29.50;40.40
1107;DHT22;540;49.448;8.612;2023-09-30T11:13:00;28.50;41.40
1107;DHT22;540;49.448;8.612;2023-09-30T11:15:28;27.60;43.10
1107;DHT22;540;49.448;8.612;2023-09-30T11:18:13;27.40;44.40
1107;DHT22;540;49.448;8.612;2023-09-30T11:20:41;27.70;43.90
1107;DHT22;540;49.448;8.612;2023-09-30T11:23:10;28.10;43.70
1107;DHT22;540;49.448;8.612;2023-09-30T11:25:38;28.20;42.80
1107;DHT22;540;49.448;8.612;2023-09-30T11:28:14;28.00;42.20
1107;DHT22;540;49.448;8.612;2023-09-30T11:30:55;27.10;43.80
1107;DHT22;540;49.448;8.612;2023-09-30T11:33:23;26.70;44.80
1107;DHT22;540;49.448;8.612;2023-09-30T11:36:01;27.00;44.60
1107;DHT22;540;49.448;8.612;2023-09-30T11:38:29;27.40;44.10
1107;DHT22;540;49.448;8.612;2023-09-30T11:40:59;28.00;43.20
1107;DHT22;540;49.448;8.612;2023-09-30T11:43:30;28.20;42.20
1107;DHT22;540;49.448;8.612;2023-09-30T11:46:05;28.30;42.10
1107;DHT22;540;49.448;8.612;2023-09-30T11:48:35;28.40;42.00
1107;DHT22;540;49.448;8.612;2023-09-30T11:51:04;28.30;42.30
1107;DHT22;540;49.448;8.612;2023-09-30T11:53:35;28.50;42.30
1107;DHT22;540;49.448;8.612;2023-09-30T11:56:03;28.40;42.40
1107;DHT22;540;49.448;8.612;2023-09-30T11:58:33;28.10;42.30
1107;DHT22;540;49.448;8.612;2023-09-30T12:01:01;28.10;42.50
1107;DHT22;540;49.448;8.612;2023-09-30T12:03:29;28.60;41.60
1107;DHT22;540;49.448;8.612;2023-09-30T12:05:58;28.50;40.20
1107;DHT22;540;49.448;8.612;2023-09-30T12:08:27;28.20;40.50
1107;DHT22;540;49.448;8.612;2023-09-30T12:10:55;28.00;41.60
1107;DHT22;540;49.448;8.612;2023-09-30T12:13:23;28.00;41.70
1107;DHT22;540;49.448;8.612;2023-09-30T12:15:52;27.80;42.10
1107;DHT22;540;49.448;8.612;2023-09-30T12:18:20;27.90;41.40
1107;DHT22;540;49.448;8.612;2023-09-30T12:20:50;28.00;41.90
1107;DHT22;540;49.448;8.612;2023-09-30T12:23:19;28.00;41.90
1107;DHT22;540;49.448;8.612;2023-09-30T12:25:47;27.90;41.70
1107;DHT22;540;49.448;8.612;2023-09-30T12:28:34;27.70;41.90
1107;DHT22;540;49.448;8.612;2023-09-30T12:31:03;27.70;42.10
1107;DHT22;540;49.448;8.612;2023-09-30T12:33:32;27.80;41.90
1107;DHT22;540;49.448;8.612;2023-09-30T12:36:00;27.80;41.40
1107;DHT22;540;49.448;8.612;2023-09-30T12:38:28;27.40;42.70
1107;DHT22;540;49.448;8.612;2023-09-30T12:40:56;26.70;43.30
1107;DHT22;540;49.448;8.612;2023-09-30T12:43:25;26.00;44.70
1107;DHT22;540;49.448;8.612;2023-09-30T12:45:53;25.80;46.20
1107;DHT22;540;49.448;8.612;2023-09-30T12:48:22;26.40;45.30
1107;DHT22;540;49.448;8.612;2023-09-30T12:50:50;26.60;44.20
1107;DHT22;540;49.448;8.612;2023-09-30T12:53:18;27.10;43.50
1107;DHT22;540;49.448;8.612;2023-09-30T12:55:45;27.80;42.50
1107;DHT22;540;49.448;8.612;2023-09-30T12:58:13;28.00;41.70
1107;DHT22;540;49.448;8.612;2023-09-30T13:00:41;28.20;41.20
1107;DHT22;540;49.448;8.612;2023-09-30T13:03:09;27.80;41.60
1107;DHT22;540;49.448;8.612;2023-09-30T13:05:40;27.50;42.10
1107;DHT22;540;49.448;8.612;2023-09-30T13:08:10;26.70;43.60
1107;DHT22;540;49.448;8.612;2023-09-30T13:10:38;26.50;44.60
1107;DHT22;540;49.448;8.612;2023-09-30T13:13:05;26.10;44.60
1107;DHT22;540;49.448;8.612;2023-09-30T13:15:33;26.20;44.90
1107;DHT22;540;49.448;8.612;2023-09-30T13:18:01;26.30;45.30
1107;DHT22;540;49.448;8.612;2023-09-30T13:20:31;26.20;45.10
1107;DHT22;540;49.448;8.612;2023-09-30T13:23:00;26.20;44.70
1107;DHT22;540;49.448;8.612;2023-09-30T13:25:29;26.60;44.50
1107;DHT22;540;49.448;8.612;2023-09-30T13:27:57;26.40;44.40
1107;DHT22;540;49.448;8.612;2023-09-30T13:30:25;26.40;44.90
1107;DHT22;540;49.448;8.612;2023-09-30T13:32:53;26.20;44.70
1107;DHT22;540;49.448;8.612;2023-09-30T13:35:21;26.10;45.10
1107;DHT22;540;49.448;8.612;2023-09-30T13:37:49;25.90;45.20
1107;DHT22;540;49.448;8.612;2023-09-30T13:40:18;25.90;45.80
1107;DHT22;540;49.448;8.612;2023-09-30T13:42:48;25.80;46.10
1107;DHT22;540;49.448;8.612;2023-09-30T13:45:16;25.70;45.90
1107;DHT22;540;49.448;8.612;2023-09-30T13:47:44;25.70;45.90
1107;DHT22;540;49.448;8.612;2023-09-30T13:50:12;25.60;46.40
1107;DHT22;540;49.448;8.612;2023-09-30T13:52:40;25.70;46.50
1107;DHT22;540;49.448;8.612;2023-09-30T13:55:08;25.40;46.50
1107;DHT22;540;49.448;8.612;2023-09-30T13:57:38;25.30;47.00
1107;DHT22;540;49.448;8.612;2023-09-30T14:00:08;25.10;46.90
1107;DHT22;540;49.448;8.612;2023-09-30T14:02:37;25.00;46.90
1107;DHT22;540;49.448;8.612;2023-09-30T14:05:06;24.80;47.60
1107;DHT22;540;49.448;8.612;2023-09-30T14:07:34;24.50;48.60
1107;DHT22;540;49.448;8.612;2023-09-30T14:10:02;24.20;49.40
1107;DHT22;540;49.448;8.612;2023-09-30T14:12:32;24.20;49.90
1107;DHT22;540;49.448;8.612;2023-09-30T14:15:02;24.20;50.40
1107;DHT22;540;49.448;8.612;2023-09-30T14:17:31;24.30;49.90
1107;DHT22;540;49.448;8.612;2023-09-30T14:20:01;24.30;50.30
1107;DHT22;540;49.448;8.612;2023-09-30T14:22:32;24.30;49.60
1107;DHT22;540;49.448;8.612;2023-09-30T14:24:59;24.20;49.20
1107;DHT22;540;49.448;8.612;2023-09-30T14:27:27;24.20;49.50
1107;DHT22;540;49.448;8.612;2023-09-30T14:29:56;24.30;49.30
1107;DHT22;540;49.448;8.612;2023-09-30T14:32:25;24.30;48.80
1107;DHT22;540;49.448;8.612;2023-09-30T14:34:54;24.30;48.70
1107;DHT22;540;49.448;8.612;2023-09-30T14:37:22;24.40;49.00
1107;DHT22;540;49.448;8.612;2023-09-30T14:39:49;24.20;48.90
1107;DHT22;540;49.448;8.612;2023-09-30T14:42:17;24.10;49.40
1107;DHT22;540;49.448;8.612;2023-09-30T14:44:45;23.90;49.70
1107;DHT22;540;49.448;8.612;2023-09-30T14:47:13;23.80;50.30
1107;DHT22;540;49.448;8.612;2023-09-30T14:49:42;23.70;50.50
1107;DHT22;540;49.448;8.612;2023-09-30T14:52:10;23.80;50.50
1107;DHT22;540;49.448;8.612;2023-09-30T14:54:38;23.80;50.70
1107;DHT22;540;49.448;8.612;2023-09-30T14:57:06;23.60;50.60
1107;DHT22;540;49.448;8.612;2023-09-30T14:59:35;23.50;51.00
1107;DHT22;540;49.448;8.612;2023-09-30T15:02:02;23.50;51.00
1107;DHT22;540;49.448;8.612;2023-09-30T15:04:30;23.40;51.20
1107;DHT22;540;49.448;8.612;2023-09-30T15:07:01;23.30;51.20
1107;DHT22;540;49.448;8.612;2023-09-30T15:09:29;23.10;51.00
1107;DHT22;540;49.448;8.612;2023-09-30T15:11:57;23.20;51.60
1107;DHT22;540;49.448;8.612;2023-09-30T15:14:25;23.10;51.60
1107;DHT22;540;49.448;8.612;2023-09-30T15:16:53;23.00;51.40
1107;DHT22;540;49.448;8.612;2023-09-30T15:19:21;23.00;52.00
1107;DHT22;540;49.448;8.612;2023-09-30T15:21:48;22.90;51.90
1107;DHT22;540;49.448;8.612;2023-09-30T15:24:18;22.80;51.70
1107;DHT22;540;49.448;8.612;2023-09-30T15:26:46;22.90;52.30
1107;DHT22;540;49.448;8.612;2023-09-30T15:29:13;23.00;53.00
1107;DHT22;540;49.448;8.612;2023-09-30T15:31:42;22.90;52.80
1107;DHT22;540;49.448;8.612;2023-09-30T15:34:10;22.80;52.80
1107;DHT22;540;49.448;8.612;2023-09-30T15:36:43;22.80;52.60
1107;DHT22;540;49.448;8.612;2023-09-30T15:39:11;22.70;52.70
1107;DHT22;540;49.448;8.612;2023-09-30T15:41:40;22.70;53.10
1107;DHT22;540;49.448;8.612;2023-09-30T15:44:08;22.80;53.80
1107;DHT22;540;49.448;8.612;2023-09-30T15:46:36;22.60;53.70
1107;DHT22;540;49.448;8.612;2023-09-30T15:49:04;22.50;54.10
1107;DHT22;540;49.448;8.612;2023-09-30T15:51:32;22.40;54.10
1107;DHT22;540;49.448;8.612;2023-09-30T15:54:00;22.40;54.40
1107;DHT22;540;49.448;8.612;2023-09-30T15:56:27;22.20;54.20
1107;DHT22;540;49.448;8.612;2023-09-30T15:59:19;22.20;54.80
1107;DHT22;540;49.448;8.612;2023-09-30T16:01:46;22.10;55.40
1107;DHT22;540;49.448;8.612;2023-09-30T16:04:15;22.30;55.80
1107;DHT22;540;49.448;8.612;2023-09-30T16:06:44;21.60;55.50
1107;DHT22;540;49.448;8.612;2023-09-30T16:09:12;22.20;56.40
1107;DHT22;540;49.448;8.612;2023-09-30T16:11:39;21.90;56.20
1107;DHT22;540;49.448;8.612;2023-09-30T16:14:08;21.60;55.80
1107;DHT22;540;49.448;8.612;2023-09-30T16:16:37;21.70;55.70
1107;DHT22;540;49.448;8.612;2023-09-30T16:19:05;21.70;55.80
1107;DHT22;540;49.448;8.612;2023-09-30T16:21:33;21.60;56.10
1107;DHT22;540;49.448;8.612;2023-09-30T16:24:01;21.80;56.50
1107;DHT22;540;49.448;8.612;2023-09-30T16:26:28;21.50;56.30
1107;DHT22;540;49.448;8.612;2023-09-30T16:28:57;21.50;56.70
1107;DHT22;540;49.448;8.612;2023-09-30T16:31:25;21.20;57.00